createdAt,value
2018-02-23T00:01:29.073Z,68.24
2018-02-23T00:07:48.599Z,67.96
2018-02-23T00:13:53.928Z,67.68
2018-02-23T00:19:59.029Z,68.27
2018-02-23T00:26:04.453Z,68.42
2018-02-23T00:32:09.394Z,69.45
2018-02-23T00:38:14.545Z,69.04
2018-02-23T00:44:21.762Z,69.28
2018-02-23T00:50:30.405Z,69.50
2018-02-23T00:56:37.898Z,68.60
2018-02-23T01:02:43.309Z,68.75
2018-02-23T01:08:49.557Z,68.86
2018-02-23T01:14:56.291Z,69.14
2018-02-23T01:21:02.544Z,69.49
2018-02-23T01:27:09.743Z,69.70
2018-02-23T01:33:21.482Z,69.79
2018-02-23T01:39:27.344Z,69.64
2018-02-23T01:45:32.890Z,69.87
2018-02-23T01:51:39.343Z,69.21
2018-02-23T01:57:44.574Z,69.35
2018-02-23T02:03:49.708Z,69.13
2018-02-23T02:09:55.903Z,69.06
2018-02-23T02:16:01.108Z,69.06
2018-02-23T02:22:06.281Z,68.12
2018-02-23T02:28:11.061Z,65.44
2018-02-23T02:34:15.807Z,63.25
2018-02-23T02:40:21.181Z,63.96
2018-02-23T02:46:26.538Z,63.66
2018-02-23T02:52:32.860Z,61.63
2018-02-23T02:58:39.381Z,61.96
2018-02-23T03:04:46.844Z,61.25
2018-02-23T03:10:56.670Z,62.80
2018-02-23T03:17:01.641Z,63.89
2018-02-23T03:23:07.344Z,64.33
2018-02-23T03:29:12.146Z,65.35
2018-02-23T03:35:16.850Z,65.70
2018-02-23T03:41:24.886Z,66.01
2018-02-23T03:47:32.400Z,65.89
2018-02-23T03:53:37.382Z,65.99
2018-02-23T03:59:42.252Z,66.41
2018-02-23T04:05:48.409Z,66.67
2018-02-23T04:11:53.579Z,66.73
2018-02-23T04:17:59.581Z,67.18
2018-02-23T04:24:04.478Z,67.52
2018-02-23T04:30:10.115Z,67.48
2018-02-23T04:36:16.201Z,68.09
2018-02-23T04:42:21.618Z,68.51
2018-02-23T04:48:26.583Z,68.07
2018-02-23T04:54:32.045Z,67.64
2018-02-23T05:00:37.840Z,66.83
2018-02-23T05:06:42.705Z,66.40
2018-02-23T05:12:48.110Z,65.83
2018-02-23T05:28:38.034Z,66.37
2018-02-23T05:34:43.136Z,66.10
2018-02-23T05:40:48.600Z,65.74
2018-02-23T05:46:55.018Z,65.61
2018-02-23T05:53:00.110Z,65.64
2018-02-23T05:59:05.130Z,65.59
2018-02-23T06:05:10.075Z,65.01
2018-02-23T06:11:15.161Z,64.77
2018-02-23T06:17:26.229Z,65.20
2018-02-23T06:23:31.400Z,65.29
2018-02-23T06:29:36.152Z,65.39
2018-02-23T06:35:44.145Z,65.12
2018-02-23T06:41:51.373Z,65.34
2018-02-23T06:47:57.005Z,66.22
2018-02-23T06:54:01.972Z,66.29
2018-02-23T07:00:07.330Z,66.73
2018-02-23T07:06:12.790Z,67.76
2018-02-23T07:12:17.509Z,67.62
2018-02-23T07:18:23.606Z,66.90
2018-02-23T07:24:28.759Z,66.33
2018-02-23T07:30:33.773Z,64.65
2018-02-23T07:36:39.088Z,64.47
2018-02-23T07:42:44.095Z,64.49
2018-02-23T07:48:49.052Z,64.57
2018-02-23T07:54:54.980Z,64.42
2018-02-23T08:00:59.689Z,63.38
2018-02-23T08:07:05.255Z,63.38
2018-02-23T08:13:09.983Z,63.54
2018-02-23T08:19:15.443Z,62.97
2018-02-23T08:25:20.914Z,62.25
2018-02-23T08:31:26.388Z,61.51
2018-02-23T08:37:32.259Z,60.64
2018-02-23T08:43:37.192Z,60.91
2018-02-23T08:49:43.154Z,59.90
2018-02-23T08:55:48.116Z,59.22
2018-02-23T09:01:54.518Z,59.98
2018-02-23T09:07:59.229Z,59.41
2018-02-23T09:14:04.514Z,58.60
2018-02-23T09:20:09.930Z,58.37
2018-02-23T09:26:15.449Z,58.52
2018-02-23T09:38:55.207Z,55.65
2018-02-23T09:44:59.767Z,55.38
2018-02-23T09:51:04.339Z,55.03
2018-02-23T09:57:08.902Z,54.45
2018-02-23T10:03:13.598Z,53.93
2018-02-23T10:09:18.409Z,53.84
2018-02-23T10:15:23.702Z,53.15
2018-02-23T10:21:28.315Z,54.10
2018-02-23T10:27:32.878Z,52.59
2018-02-23T10:33:37.647Z,51.88
2018-02-23T10:39:42.178Z,51.62
2018-02-23T10:45:47.557Z,51.63
2018-02-23T10:51:52.490Z,50.76
2018-02-23T10:57:57.927Z,49.82
2018-02-23T11:04:02.590Z,48.46
2018-02-23T11:10:07.089Z,46.38
2018-02-23T11:16:11.933Z,46.37
2018-02-23T11:22:16.585Z,46.65
2018-02-23T11:28:21.393Z,46.40
2018-02-23T11:34:26.123Z,43.90
2018-02-23T11:40:30.763Z,42.71
2018-02-23T11:46:40.471Z,41.94
2018-02-23T11:52:45.064Z,42.54
2018-02-23T11:58:50.146Z,43.30
2018-02-23T12:04:54.747Z,44.15
2018-02-23T12:10:59.386Z,43.49
2018-02-23T12:17:03.964Z,42.83
2018-02-23T12:23:09.320Z,41.26
2018-02-23T12:29:13.926Z,40.20
2018-02-23T12:35:18.554Z,38.54
2018-02-23T12:41:23.546Z,33.79
2018-02-23T12:47:28.170Z,30.50
2018-02-23T12:53:33.684Z,25.65
2018-02-23T12:59:38.259Z,29.21
2018-02-23T13:05:42.883Z,30.36
2018-02-23T13:11:47.644Z,31.32
2018-02-23T13:17:52.426Z,32.87
2018-02-23T13:23:57.781Z,33.57
2018-02-23T13:30:02.340Z,33.31
2018-02-23T13:36:07.757Z,33.83
2018-02-23T13:42:12.411Z,33.70
2018-02-23T13:48:18.717Z,31.77
2018-02-23T13:54:24.560Z,30.38
2018-02-23T14:00:29.808Z,27.85
2018-02-23T14:06:36.867Z,29.19
2018-02-23T14:12:44.752Z,29.05
2018-02-23T14:25:38.345Z,30.51
2018-02-23T14:31:43.143Z,33.05
2018-02-23T14:37:50.746Z,34.00
2018-02-23T14:44:01.259Z,35.10
2018-02-23T14:50:24.608Z,36.71
2018-02-23T14:56:31.611Z,37.00
2018-02-23T15:02:36.710Z,37.54
2018-02-23T15:08:42.420Z,37.93
2018-02-23T15:14:48.993Z,37.16
2018-02-23T15:20:55.772Z,39.30
2018-02-23T15:27:01.255Z,38.56
2018-02-23T15:33:05.865Z,38.14
2018-02-23T15:39:10.743Z,38.30
2018-02-23T15:45:16.614Z,36.70
2018-02-23T15:51:25.537Z,37.34
2018-02-23T15:57:31.575Z,36.71
2018-02-23T16:03:36.227Z,38.00
2018-02-23T16:09:42.115Z,36.30
2018-02-23T16:15:48.290Z,38.06
2018-02-23T16:21:54.326Z,38.17
2018-02-23T16:27:59.443Z,38.42
2018-02-23T16:34:04.158Z,39.35
2018-02-23T16:40:09.052Z,39.72
2018-02-23T16:46:14.244Z,41.08
2018-02-23T16:52:19.988Z,40.96
2018-02-23T16:58:24.758Z,42.79
2018-02-23T17:04:29.532Z,43.42
2018-02-23T17:10:34.144Z,44.98
2018-02-23T17:16:40.117Z,45.33
2018-02-23T17:22:44.870Z,46.12
2018-02-23T17:28:52.326Z,48.08
2018-02-23T17:34:57.171Z,47.59
2018-02-23T17:41:02.450Z,48.26
2018-02-23T17:47:07.217Z,49.31
2018-02-23T17:53:12.289Z,49.44
2018-02-23T17:59:17.094Z,50.69
2018-02-23T18:05:26.002Z,51.29
2018-02-23T18:11:30.628Z,51.81
2018-02-23T18:17:35.419Z,52.49
2018-02-23T18:23:40.260Z,52.91
2018-02-23T18:29:46.153Z,53.68
2018-02-23T18:35:52.513Z,53.90
2018-02-23T18:41:57.835Z,54.98
2018-02-23T18:48:04.847Z,55.43
2018-02-23T18:54:09.646Z,55.38
2018-02-23T19:00:15.195Z,54.74
2018-02-23T19:06:20.106Z,55.04
2018-02-23T19:12:24.794Z,55.80
2018-02-23T19:18:30.360Z,55.89
2018-02-23T19:24:35.032Z,54.25
2018-02-23T19:30:39.735Z,54.17
2018-02-23T19:36:44.335Z,53.91
2018-02-23T19:42:50.947Z,53.82
2018-02-23T19:48:56.858Z,53.96
2018-02-23T19:55:01.532Z,53.47
2018-02-23T20:01:06.516Z,53.92
2018-02-23T20:07:11.397Z,53.92
2018-02-23T20:13:16.862Z,54.84
2018-02-23T20:19:23.347Z,56.02
2018-02-23T20:25:28.112Z,56.20
2018-02-23T20:31:32.808Z,56.21
2018-02-23T20:37:39.074Z,57.53
2018-02-23T20:43:44.713Z,58.67
2018-02-23T20:49:50.773Z,60.39
2018-02-23T20:55:56.440Z,60.02
2018-02-23T21:02:01.477Z,60.05
2018-02-23T21:08:06.268Z,58.93
2018-02-23T21:14:11.200Z,59.99
2018-02-23T21:20:15.954Z,60.30
2018-02-23T21:26:20.939Z,60.49
2018-02-23T21:32:26.088Z,60.14
2018-02-23T21:38:30.736Z,59.67
2018-02-23T21:44:48.151Z,59.42
2018-02-23T21:50:53.161Z,57.77
2018-02-23T21:56:58.742Z,57.84
2018-02-23T22:03:03.428Z,55.53
2018-02-23T22:09:09.723Z,58.06
2018-02-23T22:15:14.461Z,59.63
2018-02-23T22:21:20.023Z,58.14
2018-02-23T22:27:25.386Z,59.33
2018-02-23T22:33:30.081Z,60.76
2018-02-23T22:39:34.806Z,61.44
2018-02-23T22:45:40.200Z,60.40
2018-02-23T22:51:46.024Z,60.91
2018-02-23T22:57:51.568Z,61.39
2018-02-23T23:03:56.474Z,60.57
2018-02-23T23:10:01.097Z,61.26
2018-02-23T23:16:07.236Z,61.32
2018-02-23T23:22:12.096Z,62.31
2018-02-23T23:28:17.051Z,62.35
2018-02-23T23:34:23.488Z,61.63
2018-02-23T23:40:28.869Z,63.96
2018-02-23T23:46:33.588Z,63.75
2018-02-23T23:52:38.365Z,62.13
2018-02-23T23:58:44.852Z,62.64
